.
WxDataArchive / Data Records for 2012-07-08
2012-07-07 July 2012 2012-07-09

Data Records for Sunday, 08 July 2012

Time	Temp	Chill	HIndex	Humid	Dewpt	 Wind 	HiWind	WindDir	Rain 	Barom 
-----	----	-----	------	-----	-----	------	------	-------	-----	----- 
00:00	84.7	84.7	89.0	61	69.7	0	1	292	0.00	29.890 
00:05	84.5	84.5	89.0	62	70.0	0	1	292	0.00	29.890 
00:10	84.3	84.3	88.6	62	69.8	0	1	292	0.00	29.890 
00:15	84.1	84.1	88.2	62	69.6	0	1	292	0.00	29.889 
00:20	84.1	84.1	88.2	62	69.6	0	1	292	0.00	29.889 
00:25	84.0	84.0	88.4	63	70.0	0	1	292	0.00	29.889 
00:30	83.8	83.8	88.0	63	69.8	0	1	292	0.00	29.893 
00:35	83.8	83.8	88.3	64	70.3	0	1	292	0.00	29.893 
00:40	83.4	83.4	87.6	64	69.9	0	1	292	0.00	29.893 
00:45	83.2	83.2	87.5	65	70.2	0	1	292	0.00	29.904 
00:50	83.0	83.0	87.1	65	70.0	0	1	292	0.00	29.904 
00:55	82.8	82.8	87.0	66	70.3	0	1	292	0.00	29.904 
01:00	82.8	82.8	87.2	67	70.7	2	6	112	0.00	29.903 
01:05	82.8	82.8	87.5	68	71.1	2	6	90	0.00	29.903 
01:10	82.6	82.6	87.3	69	71.4	3	7	90	0.00	29.903 
01:15	82.2	82.2	86.4	68	70.6	3	7	68	0.00	29.909 
01:20	81.6	81.6	85.5	69	70.4	3	6	68	0.00	29.909 
01:25	81.1	81.1	84.8	70	70.4	3	6	90	0.00	29.909 
01:30	80.9	80.9	84.6	71	70.6	2	4	90	0.00	29.914 
01:35	80.5	80.5	84.1	72	70.6	3	6	90	0.00	29.914 
01:40	80.1	80.1	83.4	72	70.2	3	6	90	0.00	29.914 
01:45	79.9	79.9	83.1	73	70.4	1	5	68	0.00	29.923 
01:50	79.8	79.8	83.0	73	70.4	1	4	68	0.00	29.923 
01:55	79.6	79.6	82.7	74	70.6	0	3	68	0.00	29.923 
02:00	79.4	79.4	82.4	74	70.4	0	1	68	0.00	29.924 
02:05	79.2	79.2	82.1	75	70.6	1	4	68	0.00	29.924 
02:10	79.0	79.0	81.6	73	69.6	3	5	68	0.00	29.924 
02:15	78.6	78.6	81.0	73	69.2	3	5	90	0.00	29.915 
02:20	78.3	78.3	80.6	73	68.9	3	7	90	0.00	29.915 
02:25	78.1	78.1	80.3	74	69.1	2	5	90	0.00	29.915 
02:30	77.9	77.9	80.0	74	68.9	2	5	90	0.00	29.916 
02:35	77.7	77.7	79.7	75	69.1	2	5	90	0.00	29.916 
02:40	77.6	77.6	79.6	75	69.0	0	2	68	0.00	29.916 
02:45	77.6	77.6	79.6	75	69.0	0	2	68	0.00	29.926 
02:50	77.4	77.4	79.3	76	69.2	0	1	68	0.00	29.926 
02:55	77.2	77.2	79.0	76	69.0	1	3	68	0.00	29.926 
03:00	77.0	77.0	78.7	77	69.2	1	4	90	0.00	29.928 
03:05	77.0	77.0	78.7	77	69.2	1	4	90	0.00	29.928 
03:10	76.8	76.8	78.4	77	69.0	1	4	90	0.00	29.928 
03:15	76.7	76.7	78.2	77	68.9	1	5	90	0.00	29.918 
03:20	76.5	76.5	77.9	77	68.7	2	6	90	0.00	29.918 
03:25	76.3	76.3	77.6	77	68.5	2	5	90	0.00	29.918 
03:30	76.1	76.1	77.4	77	68.3	1	4	90	0.00	29.925 
03:35	76.0	76.0	77.2	77	68.3	2	6	90	0.00	29.925 
03:40	76.0	76.0	77.2	78	68.6	2	6	90	0.00	29.925 
03:45	75.8	75.8	76.9	78	68.4	1	3	90	0.00	29.925 
03:50	75.8	75.8	76.9	78	68.4	1	4	90	0.00	29.925 
03:55	75.6	75.6	76.6	78	68.2	1	4	90	0.00	29.925 
04:00	75.4	75.4	76.2	79	68.4	2	4	90	0.00	29.928 
04:05	75.4	75.4	76.2	79	68.4	1	2	90	0.00	29.928 
04:10	75.3	75.3	76.1	79	68.3	1	3	90	0.00	29.928 
04:15	75.3	75.3	76.1	79	68.3	1	2	90	0.00	29.927 
04:20	75.1	75.1	75.8	79	68.1	0	2	90	0.00	29.927 
04:25	75.1	75.1	75.7	80	68.5	0	3	90	0.00	29.927 
04:30	74.9	74.9	74.9	80	68.3	1	2	90	0.00	29.925 
04:35	74.9	74.9	74.9	80	68.3	1	2	90	0.00	29.925 
04:40	74.7	74.7	74.7	80	68.1	1	2	90	0.00	29.925 
04:45	74.7	74.7	74.7	80	68.1	1	3	90	0.00	29.927 
04:50	74.6	74.6	74.6	80	68.0	1	2	90	0.00	29.927 
04:55	74.6	74.6	74.6	79	67.6	2	3	90	0.00	29.927 
05:00	74.6	74.6	74.6	79	67.6	1	3	90	0.00	29.928 
05:05	74.6	74.6	74.6	79	67.6	1	4	90	0.00	29.928 
05:10	74.6	74.6	74.6	79	67.6	1	3	90	0.00	29.928 
05:15	74.6	74.6	74.6	79	67.6	0	2	90	0.00	29.934 
05:20	74.6	74.6	74.6	79	67.6	1	3	90	0.00	29.934 
05:25	74.6	74.6	74.6	80	68.0	1	3	90	0.00	29.934 
05:30	74.4	74.4	74.4	80	67.8	0	2	90	0.00	29.938 
05:35	74.4	74.4	74.4	80	67.8	0	1	90	0.00	29.938 
05:40	74.4	74.4	74.4	80	67.8	0	2	90	0.00	29.938 
05:45	74.4	74.4	74.4	80	67.8	0	1	90	0.00	29.942 
05:50	74.2	74.2	74.2	80	67.6	1	3	90	0.00	29.942 
05:55	74.2	74.2	74.2	80	67.6	1	2	90	0.00	29.942 
06:00	74.2	74.2	74.2	81	68.0	0	3	90	0.00	29.948 
06:05	74.2	74.2	74.2	81	68.0	0	2	90	0.00	29.948 
06:10	74.2	74.2	74.2	81	68.0	0	0	---	0.00	29.948 
06:15	74.2	74.2	74.2	81	68.0	0	1	90	0.00	29.953 
06:20	74.2	74.2	74.2	81	68.0	0	1	90	0.00	29.953 
06:25	74.0	74.0	74.0	82	68.1	0	1	90	0.00	29.953 
06:30	74.0	74.0	74.0	82	68.1	0	2	90	0.00	29.958 
06:35	73.9	73.9	73.9	82	68.0	0	1	90	0.00	29.958 
06:40	73.9	73.9	73.9	82	68.0	0	1	90	0.00	29.958 
06:45	73.9	73.9	73.9	82	68.0	0	1	90	0.00	29.967 
06:50	73.7	73.7	73.7	82	67.9	0	2	90	0.00	29.967 
06:55	73.7	73.7	73.7	82	67.9	0	2	90	0.00	29.967 
07:00	73.7	73.7	73.7	82	67.9	0	2	90	0.00	29.969 
07:05	73.7	73.7	73.7	82	67.9	0	1	90	0.00	29.969 
07:10	73.9	73.9	73.9	82	68.0	0	1	90	0.00	29.969 
07:15	73.7	73.7	73.7	81	67.5	0	3	90	0.00	29.971 
07:20	73.5	73.5	73.5	78	66.2	1	5	90	0.00	29.971 
07:25	73.5	73.5	73.5	75	65.1	1	4	112	0.00	29.971 
07:30	73.5	73.5	73.5	71	63.5	1	5	112	0.00	29.966 
07:35	73.5	73.5	73.5	69	62.7	1	4	112	0.00	29.966 
07:40	73.7	73.7	73.7	69	62.9	1	3	90	0.00	29.966 
07:45	73.9	73.9	73.9	69	63.1	2	4	90	0.00	29.969 
07:50	74.0	74.0	74.0	68	62.8	1	5	90	0.00	29.969 
07:55	74.0	74.0	74.0	68	62.8	1	5	90	0.00	29.969 
08:00	74.2	74.2	74.2	66	62.1	2	4	90	0.00	29.972 
08:05	74.2	74.2	74.2	65	61.7	2	5	90	0.00	29.972 
08:10	74.6	74.6	74.6	65	62.0	1	5	90	0.00	29.972 
08:15	74.7	74.7	74.7	64	61.7	1	3	90	0.00	29.978 
08:20	74.9	74.9	74.9	64	61.9	1	6	90	0.00	29.978 
08:25	75.1	75.1	77.3	62	61.2	1	4	90	0.00	29.978 
08:30	75.3	75.3	77.5	62	61.4	2	6	90	0.00	29.981 
08:35	75.4	75.4	77.5	62	61.5	2	5	90	0.00	29.981 
08:40	75.4	75.4	77.5	62	61.5	2	5	112	0.00	29.981 
08:45	75.8	75.8	77.8	62	61.8	2	6	90	0.00	29.986 
08:50	76.3	76.3	78.2	59	60.9	2	7	90	0.00	29.986 
08:55	76.1	76.1	78.1	60	61.2	3	6	90	0.00	29.986 
09:00	76.0	76.0	78.0	59	60.6	2	10	112	0.00	29.993 
09:05	76.5	76.5	78.4	59	61.1	1	4	90	0.00	29.993 
09:10	76.7	76.7	78.5	56	59.8	3	5	90	0.00	29.993 
09:15	76.7	76.7	78.5	55	59.3	2	10	90	0.00	29.996 
09:20	76.3	76.3	78.3	57	59.9	2	5	112	0.00	29.996 
09:25	76.1	76.1	78.1	58	60.2	2	5	90	0.00	29.996 
09:30	76.3	76.3	78.2	58	60.4	1	5	90	0.00	29.995 
09:35	77.0	77.0	78.7	55	59.6	1	4	90	0.00	29.995 
09:40	77.6	77.6	79.0	51	58.0	1	5	112	0.00	29.995 
09:45	77.6	77.6	79.0	51	58.0	3	6	90	0.00	29.997 
09:50	77.2	77.2	78.8	52	58.2	3	7	90	0.00	29.997 
09:55	76.8	76.8	78.5	51	57.3	3	6	90	0.00	29.997 
10:00	76.8	76.8	78.5	53	58.4	2	6	112	0.00	29.996 
10:05	76.8	76.8	78.5	51	57.3	3	9	90	0.00	29.996 
10:10	76.8	76.8	78.5	52	57.8	2	5	90	0.00	29.996 
10:15	76.8	76.8	78.5	52	57.8	3	7	90	0.00	29.998 
10:20	76.8	76.8	78.5	52	57.8	2	10	90	0.00	29.998 
10:25	76.5	76.5	78.4	52	57.5	2	6	112	0.00	29.998 
10:30	76.1	76.1	78.1	53	57.7	2	4	68	0.00	30.006 
10:35	76.1	76.1	78.1	53	57.7	2	5	90	0.00	30.006 
10:40	76.5	76.5	78.4	53	58.1	1	4	90	0.00	30.006 
10:45	77.4	77.4	78.9	51	57.8	1	4	90	0.00	30.002 
10:50	77.7	77.7	79.0	49	57.0	3	7	90	0.00	30.002 
10:55	77.4	77.4	78.8	50	57.3	2	5	90	0.00	30.002 
11:00	77.0	77.0	78.6	50	56.9	1	5	90	0.00	30.006 
11:05	76.7	76.7	78.5	52	57.7	2	5	90	0.00	30.006 
11:10	76.5	76.5	78.3	51	57.0	3	7	90	0.00	30.006 
11:15	76.1	76.1	78.1	52	57.2	3	6	90	0.00	30.011 
11:20	76.0	76.0	78.1	54	58.1	2	5	90	0.00	30.011 
11:25	75.6	75.6	77.9	54	57.8	1	3	90	0.00	30.011 
11:30	75.6	75.6	77.9	54	57.8	1	3	90	0.00	30.017 
11:35	75.6	75.6	77.9	53	57.2	2	5	135	0.00	30.017 
11:40	75.8	75.8	78.0	54	57.9	2	5	68	0.00	30.017 
11:45	76.3	76.3	78.2	52	57.4	1	5	68	0.00	30.002 
11:50	76.8	76.8	78.5	52	57.8	4	7	90	0.00	30.002 
11:55	77.2	77.2	78.8	52	58.2	3	8	90	0.00	30.002 
12:00	77.4	77.4	78.8	50	57.3	4	7	90	0.00	29.999 
12:05	77.4	77.4	78.9	51	57.8	2	5	90	0.00	29.999 
12:10	77.7	77.7	79.1	51	58.1	1	4	90	0.00	29.999 
12:15	77.9	77.9	79.1	49	57.2	0	1	90	0.00	30.003 
12:20	78.1	78.1	79.3	49	57.4	2	5	90	0.00	30.003 
12:25	78.3	78.3	79.4	50	58.1	2	6	90	0.00	30.003 
12:30	78.5	78.5	79.6	50	58.3	1	3	68	0.00	30.003 
12:35	78.6	78.6	79.6	49	57.8	2	4	68	0.00	30.003 
12:40	78.6	78.6	79.7	51	58.9	1	3	68	0.00	30.003 
12:45	78.8	78.8	79.8	50	58.6	1	6	90	0.00	30.006 
12:50	78.8	78.8	79.8	50	58.6	2	4	90	0.00	30.006 
12:55	79.8	79.8	80.5	49	58.9	3	10	90	0.00	30.006 
13:00	80.5	80.5	80.9	47	58.4	3	7	90	0.00	30.003 
13:05	81.6	81.6	81.8	46	58.8	2	5	90	0.00	30.003 
13:10	82.0	82.0	81.8	43	57.3	2	5	292	0.00	30.003 
13:15	81.4	81.4	81.5	45	58.0	2	7	90	0.00	30.004 
13:20	81.1	81.1	81.1	44	57.1	1	4	90	0.00	30.004 
13:25	81.1	81.1	81.1	44	57.1	2	5	90	0.00	30.004 
13:30	81.2	81.2	81.3	45	57.8	2	5	90	0.00	30.004 
13:35	81.6	81.6	81.5	43	56.9	2	6	90	0.00	30.004 
13:40	82.0	82.0	81.7	42	56.6	2	6	90	0.00	30.004 
13:45	82.8	82.8	82.6	43	58.0	1	4	90	0.00	29.997 
13:50	83.2	83.2	83.0	43	58.3	1	3	90	0.00	29.997 
13:55	83.2	83.2	82.8	42	57.7	2	5	90	0.00	29.997 
14:00	83.0	83.0	82.8	43	58.2	2	5	90	0.00	29.987 
14:05	83.0	83.0	82.9	44	58.8	1	4	90	0.00	29.987 
14:10	83.4	83.4	83.0	42	57.9	2	7	90	0.00	29.987 
14:15	84.1	84.1	83.4	40	57.1	3	7	90	0.00	29.985 
14:20	84.7	84.7	84.4	42	59.0	1	6	112	0.00	29.985 
14:25	84.7	84.7	84.2	41	58.4	2	4	112	0.00	29.985 
14:30	84.5	84.5	84.3	43	59.5	2	5	68	0.00	29.978 
14:35	84.1	84.1	83.7	42	58.5	1	4	112	0.00	29.978 
14:40	84.0	84.0	83.6	42	58.4	3	6	90	0.00	29.978 
14:45	83.8	83.8	83.4	42	58.2	1	5	90	0.00	29.981 
14:50	83.8	83.8	83.4	42	58.2	1	3	90	0.00	29.981 
14:55	84.1	84.1	83.7	42	58.5	1	5	112	0.00	29.981 
15:00	84.9	84.9	84.4	41	58.5	1	3	112	0.00	29.980 
15:05	85.5	85.5	84.9	40	58.4	1	3	45	0.00	29.980 
15:10	86.1	86.1	85.6	40	58.9	1	3	45	0.00	29.980 
15:15	86.7	86.7	85.6	37	57.3	1	4	90	0.00	29.978 
15:20	86.7	86.7	85.8	38	58.0	1	7	90	0.00	29.978 
15:25	86.7	86.7	85.8	38	58.0	1	4	90	0.00	29.978 
15:30	86.5	86.5	85.8	39	58.6	2	5	112	0.00	29.977 
15:35	86.3	86.3	85.6	39	58.4	0	2	112	0.00	29.977 
15:40	87.0	87.0	86.2	38	58.3	1	2	112	0.00	29.977 
15:45	87.0	87.0	86.0	37	57.5	1	3	292	0.00	29.972 
15:50	87.4	87.4	86.2	36	57.1	1	6	292	0.00	29.972 
15:55	87.8	87.8	86.7	36	57.5	1	3	338	0.00	29.972 
16:00	87.6	87.6	86.2	35	56.5	1	6	112	0.00	29.969 
16:05	87.2	87.2	86.0	36	57.0	2	5	112	0.00	29.969 
16:10	86.7	86.7	85.6	37	57.3	1	4	90	0.00	29.969 
16:15	87.0	87.0	85.6	35	56.0	1	3	68	0.00	29.960 
16:20	87.2	87.2	85.8	35	56.2	1	4	68	0.00	29.960 
16:25	87.0	87.0	85.4	34	55.2	1	3	338	0.00	29.960 
16:30	87.0	87.0	85.6	35	56.0	1	4	338	0.00	29.955 
16:35	87.2	87.2	85.8	35	56.2	1	4	292	0.00	29.955 
16:40	87.4	87.4	85.8	34	55.5	1	3	292	0.00	29.955 
16:45	87.4	87.4	85.6	33	54.7	1	4	90	0.00	29.948 
16:50	87.0	87.0	85.6	35	56.0	1	3	90	0.00	29.948 
16:55	87.0	87.0	86.0	37	57.5	2	5	112	0.00	29.948 
17:00	87.0	87.0	85.8	36	56.8	1	5	90	0.00	29.950 
17:05	86.5	86.5	85.6	38	57.8	1	4	270	0.00	29.950 
17:10	86.5	86.5	85.6	38	57.8	1	3	45	0.00	29.950 
17:15	87.0	87.0	86.0	37	57.5	1	2	22	0.00	29.954 
17:20	87.0	87.0	86.0	37	57.5	2	6	270	0.00	29.954 
17:25	86.7	86.7	85.6	37	57.3	2	9	90	0.00	29.954 
17:30	86.3	86.3	85.4	38	57.7	1	4	338	0.00	29.943 
17:35	86.1	86.1	85.4	39	58.2	1	3	90	0.00	29.943 
17:40	86.1	86.1	85.0	37	56.7	1	4	90	0.00	29.943 
17:45	85.7	85.7	84.7	38	57.1	1	3	90	0.00	29.936 
17:50	85.3	85.3	84.3	38	56.8	1	5	90	0.00	29.936 
17:55	85.3	85.3	84.3	38	56.8	1	3	270	0.00	29.936 
18:00	85.3	85.3	84.5	39	57.5	1	4	338	0.00	29.929 
18:05	85.5	85.5	84.5	38	57.0	1	3	22	0.00	29.929 
18:10	85.7	85.7	84.7	38	57.1	2	7	22	0.00	29.929 
18:15	85.5	85.5	84.5	38	57.0	1	4	135	0.00	29.927 
18:20	85.3	85.3	84.3	38	56.8	1	5	90	0.00	29.927 
18:25	84.9	84.9	83.9	38	56.4	1	4	270	0.00	29.927 
18:30	84.5	84.5	83.6	39	56.8	1	4	270	0.00	29.923 
18:35	84.3	84.3	83.4	39	56.6	0	2	315	0.00	29.923 
18:40	84.0	84.0	83.1	39	56.3	1	6	315	0.00	29.923 
18:45	83.8	83.8	82.9	39	56.2	0	2	292	0.00	29.926 
18:50	83.6	83.6	82.8	39	56.0	1	5	292	0.00	29.926 
18:55	83.6	83.6	82.8	39	56.0	0	1	292	0.00	29.926 
19:00	83.8	83.8	82.9	39	56.2	1	3	90	0.00	29.942 
19:05	84.0	84.0	83.1	39	56.3	1	3	248	0.00	29.942 
19:10	84.3	84.3	83.4	39	56.6	0	6	248	0.00	29.942 
19:15	84.3	84.3	83.0	36	54.4	1	3	112	0.00	29.951 
19:20	84.3	84.3	83.0	36	54.4	1	3	270	0.00	29.951 
19:25	84.3	84.3	82.9	35	53.6	0	2	338	0.00	29.951 
19:30	84.1	84.1	82.7	35	53.5	1	5	112	0.00	29.953 
19:35	84.0	84.0	82.7	36	54.1	0	2	112	0.00	29.953 
19:40	84.0	84.0	82.7	36	54.1	0	2	112	0.00	29.953 
19:45	84.0	84.0	82.6	35	53.4	0	1	112	0.00	29.945 
19:50	83.8	83.8	82.3	34	52.4	2	8	112	0.00	29.945 
19:55	83.8	83.8	82.4	35	53.2	1	4	112	0.00	29.945 
20:00	83.6	83.6	82.2	35	53.0	2	5	112	0.00	29.952 
20:05	83.4	83.4	82.1	35	52.8	2	4	90	0.00	29.952 
20:10	83.4	83.4	82.1	35	52.8	1	4	90	0.00	29.952 
20:15	83.2	83.2	81.6	32	50.2	1	3	90	0.00	29.957 
20:20	83.0	83.0	81.3	31	49.2	0	2	90	0.00	29.957 
20:25	82.8	82.8	81.2	31	49.0	0	1	90	0.00	29.957 
20:30	82.6	82.6	80.9	30	48.0	1	2	90	0.00	29.958 
20:35	82.4	82.4	80.7	29	46.9	0	2	90	0.00	29.958 
20:40	82.2	82.2	80.6	30	47.7	0	1	90	0.00	29.958 
20:45	82.0	82.0	80.6	31	48.4	0	4	112	0.00	29.962 
20:50	81.6	81.6	80.2	30	47.1	0	1	112	0.00	29.962 
20:55	81.4	81.4	80.1	31	47.8	0	1	112	0.00	29.962 
21:00	81.1	81.1	79.9	31	47.6	0	0	---	0.00	29.968 
21:05	80.7	80.7	79.8	32	48.1	0	0	---	0.00	29.968 
21:10	80.3	80.3	79.6	33	48.5	0	0	---	0.00	29.968 
21:15	80.1	80.1	79.6	35	50.0	0	1	112	0.00	29.962 
21:20	79.8	79.8	79.4	35	49.7	0	1	112	0.00	29.962 
21:25	79.2	79.2	79.1	36	49.9	0	0	---	0.00	29.962 
21:30	78.8	78.8	79.0	37	50.3	0	0	---	0.00	29.960 
21:35	78.5	78.5	78.9	38	50.8	0	1	112	0.00	29.960 
21:40	78.1	78.1	78.7	39	51.1	0	0	---	0.00	29.960 
21:45	77.7	77.7	78.5	39	50.7	0	0	---	0.00	29.960 
21:50	77.4	77.4	78.4	40	51.2	0	2	112	0.00	29.960 
21:55	77.2	77.2	78.4	42	52.3	0	0	---	0.00	29.960 
22:00	76.8	76.8	78.3	43	52.6	0	0	---	0.00	29.960 
22:05	76.7	76.7	78.2	43	52.5	0	0	---	0.00	29.960 
22:10	76.5	76.5	78.1	43	52.3	0	2	112	0.00	29.960 
22:15	76.5	76.5	78.2	44	52.9	0	2	112	0.00	29.964 
22:20	76.3	76.3	78.1	44	52.8	0	1	112	0.00	29.964 
22:25	76.1	76.1	78.0	45	53.2	0	0	---	0.00	29.964 
22:30	76.0	76.0	78.0	46	53.7	0	0	---	0.00	29.975 
22:35	75.6	75.6	77.8	46	53.3	0	0	---	0.00	29.975 
22:40	75.3	75.3	77.7	47	53.7	0	1	112	0.00	29.975 
22:45	75.1	75.1	77.7	48	54.1	0	2	112	0.00	29.983 
22:50	74.9	74.9	74.9	48	53.9	0	0	---	0.00	29.983 
22:55	74.7	74.7	74.7	49	54.3	0	2	112	0.00	29.983 
23:00	74.6	74.6	74.6	49	54.2	0	0	---	0.00	29.984 
23:05	74.4	74.4	74.4	49	54.0	0	0	---	0.00	29.984 
23:10	74.2	74.2	74.2	50	54.3	0	0	---	0.00	29.984 
23:15	73.9	73.9	73.9	51	54.6	0	0	---	0.00	29.993 
23:20	73.5	73.5	73.5	52	54.8	0	0	---	0.00	29.993 
23:25	73.3	73.3	73.3	53	55.1	0	0	---	0.00	29.993 
23:30	73.0	73.0	73.0	53	54.8	0	0	---	0.00	29.993 
23:35	72.7	72.7	72.7	54	55.1	0	0	---	0.00	29.993 
23:40	72.3	72.3	72.3	54	54.7	0	0	---	0.00	29.993 
23:45	72.1	72.1	72.1	55	55.0	0	0	---	0.00	29.996 
23:50	71.8	71.8	71.8	55	54.7	0	0	---	0.00	29.996 
23:55	71.6	71.6	71.6	56	55.1	0	0	---	0.00	29.996 

CoCoRaHS
IN-AL-39
A2 Web Hosting
Creative Commons License
GoDaddy
search engine by freefind advanced

loaded 2018-11-19 11:31:44 • last modified 2010-11-18 10:43:29
Privacy PolicyDisclaimer
• wx.awcolley.com is powered by PmWiki v.2002016 •
• all content (unless otherwise noted) © 2018 A W Colley